Hoene Spring, Missouri
Current Conditions -  °F | °C
As of 9:54 PM on Tuesday 21 Oct 2014 (Local Time) from KSUS Reporting Station
Clear Clear  
Wind Chill: 48°   Ceiling: Unl
Heat Index: 48°   Visibility: 10mi
Dew Point: 43°   Wind: 0mph
Humidity: 83%   Direction: NA
Pressure: 30.18"   Gusts: NA
Location:  38.5081°N, 90.6523°W
Report Text: KSUS 220254Z 00000KT 10SM CLR 09/06 A3018 RMK AO2 SLP221 T00890061 51018
Loading
Personal Weather Stations






























Interactive Weather Map
Tropical Storm Tracking
New forecast layout! Learn more

10-Day Weather Forecast

Advertisements
Track Severe Weather on mobile